Terminal Aerodrome Forecast
Issued by NWS Albany, NY

Home | Current Version | Previous Version | Text Only | Print | Product List | Glossary On
Versions: 1 2 3 4 5 6 7 8 9 10 11 12 13 14 15 16 17 18 19 20 21 22
000
FTUS41 KALY 252300
TAFALB
TAF
KALB 252337Z 2600/2624 30010KT P6SM SCT250
     FM260600 02003KT P6SM BKN250
     FM261200 01003KT P6SM BKN120 OVC250
     FM261600 05009KT P6SM VCSH BKN040 OVC060
     FM262000 02004KT 5SM -SN BR OVC020
     FM262200 02006KT 2SM -SN BR OVC009=

USA.gov is the U.S. government's official web portal to all federal, state and local government web resources and services.